Time;durP1;ratioP1;P1;durP2;ratioP2;P2;SDS_P1;SDS_P2;PMS_P1;PMS_P2;Temp;Humidity;BMP_temperature;BMP_pressure;BME280_temperature;BME280_humidity;BME280_pressure;Samples;Min_cycle;Max_cycle;Signal;HPM_P1;HPM_P2
2022/11/26 00:00:48;;;;;;;3.50;3.30;;;6.40;97.30;;;;;;5016263;28;20177;-86
2022/11/26 00:03:13;;;;;;;6.40;2.33;;;6.40;97.30;;;;;;5034097;28;20506;-84
2022/11/26 00:05:41;;;;;;;10.53;3.57;;;6.40;97.30;;;;;;5034023;28;20597;-86
2022/11/26 00:08:28;;;;;;;4.70;4.40;;;6.40;97.30;;;;;;5016359;28;20288;-86
2022/11/26 00:10:54;;;;;;;2.80;2.60;;;6.40;97.30;;;;;;5016528;28;20419;-84
2022/11/26 00:13:25;;;;;;;5.40;2.93;;;6.30;97.30;;;;;;5016155;28;20510;-87
2022/11/26 00:15:52;;;;;;;5.73;3.10;;;6.30;97.30;;;;;;5016102;28;20263;-86
2022/11/26 00:18:17;;;;;;;5.50;3.20;;;6.30;97.30;;;;;;5016338;28;20754;-86
2022/11/26 00:20:44;;;;;;;4.90;4.60;;;6.30;97.30;;;;;;5015759;28;20427;-84
2022/11/26 00:23:22;;;;;;;4.97;4.67;;;6.30;97.30;;;;;;5016213;28;20424;-84
2022/11/26 00:25:51;;;;;;;4.53;3.20;;;6.30;97.30;;;;;;5015836;28;20466;-86
2022/11/26 00:28:37;;;;;;;3.17;2.30;;;6.30;97.30;;;;;;5015835;28;20982;-86
2022/11/26 00:31:11;;;;;;;2.93;2.73;;;6.30;97.30;;;;;;5015671;28;20430;-84
2022/11/26 00:33:37;;;;;;;14.20;2.13;;;6.30;97.30;;;;;;5015885;28;20414;-86
2022/11/26 00:36:14;;;;;;;12.83;3.80;;;6.30;97.30;;;;;;5015675;28;20489;-84
2022/11/26 00:38:40;;;;;;;3.90;3.70;;;6.30;97.30;;;;;;5015660;28;20200;-85
2022/11/26 00:41:15;;;;;;;3.90;2.83;;;6.40;97.30;;;;;;5015389;28;20940;-84
2022/11/26 00:43:41;;;;;;;5.57;3.80;;;6.40;97.30;;;;;;5015723;28;20172;-86
2022/11/26 00:46:12;;;;;;;3.27;2.40;;;6.40;97.30;;;;;;5033272;28;20642;-86
2022/11/26 00:48:37;;;;;;;5.43;4.37;;;6.40;97.30;;;;;;5033361;28;20216;-87
2022/11/26 00:51:03;;;;;;;4.30;4.00;;;6.40;97.30;;;;;;5015574;28;20814;-85
2022/11/26 00:53:28;;;;;;;7.87;4.50;;;6.50;97.30;;;;;;5015489;28;20177;-86
2022/11/26 00:55:54;;;;;;;8.40;2.97;;;6.50;97.30;;;;;;5014554;28;20548;-84
2022/11/26 00:58:21;;;;;;;3.37;3.13;;;6.50;97.30;;;;;;5015259;28;20584;-86
2022/11/26 01:00:47;;;;;;;3.37;2.80;;;6.50;97.30;;;;;;5015168;28;20255;-87
2022/11/26 01:03:13;;;;;;;3.00;2.80;;;6.50;97.30;;;;;;5015287;28;20426;-85
2022/11/26 01:05:38;;;;;;;8.83;4.73;;;6.50;97.30;;;;;;5033015;28;20192;-87
2022/11/26 01:08:37;;;;;;;19.97;5.13;;;6.60;97.30;;;;;;5014750;28;20203;-85
2022/11/26 01:11:04;;;;;;;3.43;3.03;;;6.60;97.30;;;;;;5014546;28;20214;-85
2022/11/26 01:13:30;;;;;;;10.40;4.40;;;6.60;97.30;;;;;;5033130;28;20422;-87
2022/11/26 01:15:57;;;;;;;2.43;2.23;;;6.60;97.30;;;;;;5015433;28;20412;-85
2022/11/26 01:18:23;;;;;;;11.43;3.60;;;6.60;97.30;;;;;;5015005;28;20431;-85
2022/11/26 01:20:49;;;;;;;10.03;4.17;;;6.70;97.30;;;;;;5015056;28;20418;-86
2022/11/26 01:23:18;;;;;;;5.03;3.47;;;6.70;97.30;;;;;;5014897;28;20419;-85
2022/11/26 01:25:45;;;;;;;5.80;4.67;;;6.70;97.30;;;;;;5032791;28;20489;-84
2022/11/26 01:28:13;;;;;;;6.30;4.20;;;6.60;97.30;;;;;;5014545;28;20427;-86
2022/11/26 01:30:39;;;;;;;16.00;3.67;;;6.60;97.30;;;;;;5014305;28;20485;-87
2022/11/26 01:33:05;;;;;;;3.03;2.83;;;6.60;97.30;;;;;;5014051;28;20433;-84
2022/11/26 01:35:31;;;;;;;8.07;3.83;;;6.60;97.30;;;;;;5014302;28;20957;-86
2022/11/26 01:37:56;;;;;;;2.77;2.57;;;6.60;97.30;;;;;;5031795;28;20192;-86
2022/11/26 01:40:52;;;;;;;5.00;4.70;;;6.60;97.30;;;;;;5014426;28;20181;-84
2022/11/26 01:43:38;;;;;;;6.70;5.93;;;6.60;97.30;;;;;;5014066;28;20184;-86
2022/11/26 01:46:12;;;;;;;4.77;4.53;;;6.60;97.30;;;;;;5014275;28;21048;-84
2022/11/26 01:48:38;;;;;;;5.47;3.53;;;6.60;97.30;;;;;;5013688;28;20467;-86
2022/11/26 01:51:08;;;;;;;17.13;5.27;;;6.60;97.30;;;;;;5014181;28;20419;-86
2022/11/26 01:53:40;;;;;;;6.87;3.90;;;6.70;97.30;;;;;;5031592;28;20172;-84
2022/11/26 01:56:15;;;;;;;10.07;3.43;;;6.70;97.30;;;;;;5032353;28;20921;-84
2022/11/26 01:58:57;;;;;;;7.43;4.30;;;6.70;97.30;;;;;;5031817;28;20806;-86
2022/11/26 02:01:23;;;;;;;7.03;5.13;;;6.70;97.30;;;;;;5032142;28;20413;-84
2022/11/26 02:04:03;;;;;;;3.90;2.67;;;6.70;97.30;;;;;;5014167;28;20499;-84
2022/11/26 02:06:32;;;;;;;6.10;4.90;;;6.70;97.30;;;;;;5012842;28;21347;-83
2022/11/26 02:09:00;;;;;;;7.30;4.33;;;6.80;97.30;;;;;;4994949;28;20440;-84
2022/11/26 02:11:25;;;;;;;4.73;2.80;;;6.80;97.30;;;;;;4996160;28;20466;-86
2022/11/26 02:13:57;;;;;;;21.40;2.90;;;6.80;97.30;;;;;;4996986;28;20869;-84
2022/11/26 02:16:34;;;;;;;3.60;3.40;;;6.80;97.30;;;;;;4996865;28;20507;-83
2022/11/26 02:19:20;;;;;;;3.90;3.70;;;6.80;97.30;;;;;;4931072;29;20774;-86
2022/11/26 02:22:00;;;;;;;3.00;2.13;;;6.80;97.30;;;;;;4951111;28;20423;-84
2022/11/26 02:24:53;;;;;;;4.07;3.73;;;6.80;97.30;;;;;;4996647;28;20459;-84
2022/11/26 02:27:46;;;;;;;7.20;4.87;;;6.80;97.30;;;;;;4996937;28;20474;-84
2022/11/26 02:30:13;;;;;;;6.87;4.73;;;6.80;97.30;;;;;;4997128;28;20930;-86
2022/11/26 02:32:57;;;;;;;4.07;3.73;;;6.90;97.30;;;;;;4997040;28;20881;-86
2022/11/26 02:35:53;;;;;;;6.60;3.80;;;6.90;97.30;;;;;;4997297;28;20422;-84
2022/11/26 02:38:22;;;;;;;7.93;7.37;;;6.90;97.30;;;;;;4996774;28;20431;-84
2022/11/26 02:40:48;;;;;;;14.93;6.20;;;6.90;97.30;;;;;;4997097;28;20446;-85
2022/11/26 02:43:15;;;;;;;4.50;3.90;;;6.90;97.30;;;;;;4996544;28;20923;-84
2022/11/26 02:45:43;;;;;;;3.30;3.10;;;6.90;97.30;;;;;;4997020;28;20581;-84
2022/11/26 02:48:18;;;;;;;16.50;4.80;;;6.90;97.30;;;;;;5044048;23;20501;-80
2022/11/26 02:50:49;;;;;;;2.30;2.10;;;6.90;97.30;;;;;;5072756;28;20393;-78
2022/11/26 02:53:18;;;;;;;7.00;4.13;;;6.90;97.30;;;;;;5053138;28;20475;-78
2022/11/26 02:55:48;;;;;;;4.97;3.30;;;6.80;97.30;;;;;;5053219;28;20467;-78
2022/11/26 02:58:14;;;;;;;4.90;2.83;;;6.80;97.30;;;;;;5052923;28;20413;-78
2022/11/26 03:00:42;;;;;;;4.67;3.67;;;6.80;97.30;;;;;;5053562;28;20497;-79
2022/11/26 03:03:24;;;;;;;21.07;4.63;;;6.80;97.30;;;;;;5053398;28;20429;-80
2022/11/26 03:05:57;;;;;;;24.43;4.97;;;6.80;97.30;;;;;;5056013;28;20517;-80
2022/11/26 03:08:26;;;;;;;10.97;4.40;;;6.80;97.30;;;;;;5037222;28;20433;-80
2022/11/26 03:10:51;;;;;;;2.40;2.23;;;6.80;97.30;;;;;;5055319;28;20791;-80
2022/11/26 03:13:17;;;;;;;5.03;2.97;;;6.80;97.30;;;;;;5055922;28;20437;-80
2022/11/26 03:15:43;;;;;;;6.80;2.50;;;6.80;97.30;;;;;;5055819;28;20219;-80
2022/11/26 03:18:09;;;;;;;4.87;3.73;;;6.90;97.30;;;;;;5074573;28;20250;-80
2022/11/26 03:20:35;;;;;;;3.90;3.70;;;6.90;97.30;;;;;;5059664;28;20448;-80
2022/11/26 03:23:01;;;;;;;2.33;2.13;;;6.90;97.30;;;;;;5059403;28;20610;-79
2022/11/26 03:25:27;;;;;;;4.07;3.83;;;6.90;97.30;;;;;;5059366;28;20457;-80
2022/11/26 03:27:52;;;;;;;4.20;3.87;;;6.90;97.30;;;;;;5058773;28;20178;-79
2022/11/26 03:30:18;;;;;;;2.83;2.63;;;6.90;97.30;;;;;;5059365;28;20175;-80
2022/11/26 03:32:44;;;;;;;14.10;7.60;;;6.90;97.30;;;;;;5059767;28;20199;-79
2022/11/26 03:35:09;;;;;;;2.00;1.90;;;7.00;97.30;;;;;;5078124;28;20419;-80
2022/11/26 03:37:35;;;;;;;4.70;4.20;;;7.00;97.30;;;;;;5059768;28;20430;-79
2022/11/26 03:40:01;;;;;;;4.77;3.47;;;7.00;97.30;;;;;;5059283;28;20229;-79
2022/11/26 03:42:27;;;;;;;2.43;2.00;;;7.00;97.30;;;;;;5059438;28;20464;-80
2022/11/26 03:44:53;;;;;;;5.80;3.90;;;7.00;97.30;;;;;;5059235;28;20207;-79
2022/11/26 03:47:19;;;;;;;4.67;2.47;;;7.00;97.30;;;;;;5077304;28;20175;-80
2022/11/26 03:49:45;;;;;;;3.73;2.00;;;7.00;97.30;;;;;;5076866;28;20827;-80
2022/11/26 03:52:11;;;;;;;3.27;2.47;;;7.00;97.30;;;;;;5077244;28;20410;-79
2022/11/26 03:54:36;;;;;;;5.80;4.27;;;7.00;97.30;;;;;;5059193;28;20181;-79
2022/11/26 03:57:02;;;;;;;4.03;3.17;;;7.00;97.30;;;;;;5058998;28;20172;-80
2022/11/26 03:59:28;;;;;;;3.80;3.60;;;7.00;97.30;;;;;;5059315;28;20481;-81
2022/11/26 04:01:53;;;;;;;5.10;3.53;;;7.00;97.30;;;;;;5058837;28;20675;-80
2022/11/26 04:04:19;;;;;;;5.73;3.47;;;7.00;97.30;;;;;;5058974;28;20203;-79
2022/11/26 04:06:44;;;;;;;12.03;6.00;;;7.00;97.30;;;;;;5058789;28;20202;-80
2022/11/26 04:09:10;;;;;;;2.67;2.50;;;7.00;97.30;;;;;;5059113;28;20182;-80
2022/11/26 04:11:36;;;;;;;2.40;2.13;;;7.00;97.30;;;;;;5059016;28;20175;-79
2022/11/26 04:14:01;;;;;;;5.43;2.27;;;7.00;97.30;;;;;;5058688;28;20644;-80
2022/11/26 04:16:27;;;;;;;6.73;4.33;;;7.00;97.30;;;;;;5058650;28;20214;-79
2022/11/26 04:18:53;;;;;;;5.50;2.73;;;7.00;97.30;;;;;;5058866;28;20179;-80
2022/11/26 04:21:18;;;;;;;2.30;2.10;;;7.10;97.30;;;;;;5059096;28;20171;-80
2022/11/26 04:23:44;;;;;;;7.73;5.70;;;7.10;97.30;;;;;;5058315;28;20309;-80
2022/11/26 04:26:09;;;;;;;5.63;3.17;;;7.10;97.30;;;;;;5058362;28;20199;-80
2022/11/26 04:28:35;;;;;;;9.10;4.07;;;7.10;97.30;;;;;;5057750;28;20183;-79
2022/11/26 04:31:01;;;;;;;14.70;3.77;;;7.10;97.30;;;;;;5056908;28;20648;-79
2022/11/26 04:33:26;;;;;;;7.33;3.80;;;7.10;97.30;;;;;;5057970;28;20202;-79
2022/11/26 04:35:53;;;;;;;6.50;5.87;;;7.10;97.30;;;;;;5057504;28;20640;-80
2022/11/26 04:38:18;;;;;;;2.73;2.57;;;7.10;97.30;;;;;;5057475;28;20216;-79
2022/11/26 04:40:45;;;;;;;2.53;2.33;;;7.20;97.30;;;;;;5057806;28;20422;-79
2022/11/26 04:43:11;;;;;;;3.53;3.33;;;7.20;97.30;;;;;;5059815;28;20221;-80
2022/11/26 04:45:36;;;;;;;13.87;4.93;;;7.10;97.30;;;;;;5059978;28;20484;-80
2022/11/26 04:48:02;;;;;;;3.83;2.80;;;7.10;97.30;;;;;;5059338;28;20167;-80
2022/11/26 04:50:28;;;;;;;3.97;3.20;;;7.10;97.30;;;;;;5058680;28;20186;-80
2022/11/26 04:52:54;;;;;;;3.70;2.87;;;7.10;97.30;;;;;;5058351;28;20428;-80
2022/11/26 04:55:20;;;;;;;3.67;3.50;;;7.10;97.30;;;;;;5058824;28;20611;-80
2022/11/26 04:57:47;;;;;;;2.70;2.50;;;7.10;97.30;;;;;;5058536;28;20183;-80
2022/11/26 05:00:15;;;;;;;2.83;2.63;;;7.10;97.30;;;;;;5058806;28;20182;-80
2022/11/26 05:02:40;;;;;;;5.37;4.03;;;7.10;97.30;;;;;;5057366;28;20459;-81
2022/11/26 05:05:06;;;;;;;3.30;2.53;;;7.10;97.30;;;;;;5057354;28;20453;-81
2022/11/26 05:07:32;;;;;;;5.47;3.90;;;7.10;97.30;;;;;;5057482;28;20178;-80
2022/11/26 05:09:57;;;;;;;4.83;4.50;;;7.10;97.30;;;;;;5057816;28;20421;-81
2022/11/26 05:12:23;;;;;;;3.00;2.80;;;7.10;97.30;;;;;;5057820;28;20286;-80
2022/11/26 05:14:49;;;;;;;9.70;5.90;;;7.10;97.30;;;;;;5057931;28;20194;-81
2022/11/26 05:17:14;;;;;;;9.80;3.77;;;7.10;97.30;;;;;;5056230;28;20182;-79
2022/11/26 05:19:40;;;;;;;2.57;2.37;;;7.10;97.30;;;;;;5056483;28;20218;-81
2022/11/26 05:22:05;;;;;;;9.13;4.50;;;7.00;97.30;;;;;;5057166;28;20218;-80
2022/11/26 05:24:31;;;;;;;4.10;3.50;;;7.00;97.30;;;;;;5056256;28;20893;-81
2022/11/26 05:26:56;;;;;;;5.73;4.93;;;7.00;97.30;;;;;;5056508;28;20181;-81
2022/11/26 05:29:22;;;;;;;10.20;5.37;;;6.90;97.30;;;;;;5056701;28;20179;-81
2022/11/26 05:31:48;;;;;;;6.63;3.20;;;6.80;97.30;;;;;;5056460;28;20233;-81
2022/11/26 05:34:13;;;;;;;2.87;1.93;;;6.80;97.30;;;;;;5056020;28;20195;-81
2022/11/26 05:36:39;;;;;;;13.53;5.17;;;6.80;97.30;;;;;;5055413;28;20199;-80
2022/11/26 05:39:04;;;;;;;2.70;2.50;;;6.80;97.30;;;;;;5056483;28;20175;-81
2022/11/26 05:41:30;;;;;;;7.03;5.53;;;6.70;97.30;;;;;;5056256;28;20632;-80
2022/11/26 05:43:56;;;;;;;2.17;2.00;;;6.70;97.30;;;;;;5057007;28;20191;-80
2022/11/26 05:46:21;;;;;;;3.10;2.90;;;6.70;97.30;;;;;;5075454;28;20195;-80
2022/11/26 05:48:47;;;;;;;4.23;3.33;;;6.70;97.30;;;;;;5057359;28;20741;-80
2022/11/26 05:51:12;;;;;;;5.13;3.77;;;6.70;97.30;;;;;;5056807;28;20265;-80
2022/11/26 05:53:38;;;;;;;2.90;2.70;;;6.70;97.30;;;;;;5054328;28;20202;-81
2022/11/26 05:56:04;;;;;;;5.17;3.80;;;6.70;97.30;;;;;;5056163;28;20320;-81
2022/11/26 05:58:29;;;;;;;2.50;2.30;;;6.70;97.30;;;;;;5056525;28;20845;-80
2022/11/26 06:00:55;;;;;;;4.13;3.33;;;6.70;97.30;;;;;;5074344;28;20198;-80
2022/11/26 06:03:21;;;;;;;3.50;3.13;;;6.70;97.30;;;;;;5057161;28;20199;-80
2022/11/26 06:05:47;;;;;;;1.83;1.63;;;6.60;97.30;;;;;;5057407;28;20248;-79
2022/11/26 06:08:12;;;;;;;11.00;4.20;;;6.60;97.30;;;;;;5055916;28;20197;-80
2022/11/26 06:10:41;;;;;;;6.33;3.90;;;6.60;97.30;;;;;;5056040;28;20508;-79
2022/11/26 06:13:06;;;;;;;5.87;3.47;;;6.50;97.30;;;;;;5055284;28;20282;-80
2022/11/26 06:15:32;;;;;;;4.10;3.73;;;6.50;97.30;;;;;;5055372;28;20453;-80
2022/11/26 06:17:58;;;;;;;3.67;3.47;;;6.50;97.30;;;;;;5055175;28;20175;-79
2022/11/26 06:20:23;;;;;;;3.97;3.80;;;6.50;97.30;;;;;;5055110;28;20225;-79
2022/11/26 06:22:49;;;;;;;2.70;2.50;;;6.50;97.30;;;;;;5055456;28;20191;-80
2022/11/26 06:25:14;;;;;;;2.70;2.50;;;6.50;97.30;;;;;;5055419;28;20217;-80
2022/11/26 06:27:40;;;;;;;7.33;4.13;;;6.50;97.30;;;;;;5056287;28;20183;-80
2022/11/26 06:30:08;;;;;;;2.03;1.90;;;6.40;97.30;;;;;;5056172;28;20194;-80
2022/11/26 06:32:34;;;;;;;5.27;3.77;;;6.40;97.30;;;;;;5056232;28;20430;-80
2022/11/26 06:34:59;;;;;;;3.00;2.70;;;6.40;97.30;;;;;;5057187;28;20450;-79
2022/11/26 06:37:25;;;;;;;2.47;2.37;;;6.40;97.30;;;;;;5054806;28;20423;-78
2022/11/26 06:39:51;;;;;;;5.23;3.60;;;6.40;97.30;;;;;;5053928;28;20274;-79
2022/11/26 06:42:17;;;;;;;4.47;3.37;;;6.30;97.30;;;;;;5053858;28;20437;-79
2022/11/26 06:44:43;;;;;;;5.43;3.60;;;6.30;97.30;;;;;;5071410;28;20191;-79
2022/11/26 06:47:12;;;;;;;3.63;2.93;;;6.30;97.30;;;;;;5072451;28;20475;-79
2022/11/26 06:49:38;;;;;;;7.77;3.90;;;6.30;97.30;;;;;;5053811;28;20683;-79
2022/11/26 06:52:04;;;;;;;9.43;6.80;;;6.30;97.30;;;;;;5053676;28;20421;-78
2022/11/26 06:54:29;;;;;;;12.20;8.70;;;6.30;97.30;;;;;;5057858;28;20257;-79
2022/11/26 06:56:55;;;;;;;6.13;4.03;;;6.30;97.30;;;;;;5059257;28;20218;-79
2022/11/26 06:59:21;;;;;;;9.70;3.60;;;6.30;97.30;;;;;;5059558;28;20189;-79
2022/11/26 07:01:47;;;;;;;8.07;4.40;;;6.30;97.30;;;;;;5059691;28;20205;-80
2022/11/26 07:04:13;;;;;;;6.20;5.17;;;6.30;97.30;;;;;;5059433;28;20206;-80
2022/11/26 07:06:39;;;;;;;6.80;5.97;;;6.30;97.30;;;;;;5059086;28;20171;-80
2022/11/26 07:09:07;;;;;;;10.33;7.70;;;6.30;97.30;;;;;;5059867;28;20449;-79
2022/11/26 07:11:34;;;;;;;5.70;3.57;;;6.40;97.30;;;;;;5061069;28;20454;-80
2022/11/26 07:14:00;;;;;;;6.43;5.30;;;6.40;97.30;;;;;;5060808;28;20429;-80
2022/11/26 07:16:26;;;;;;;13.10;6.30;;;6.40;97.30;;;;;;5061580;28;20409;-80
2022/11/26 07:18:53;;;;;;;8.70;6.27;;;6.40;97.30;;;;;;5061313;28;20503;-80
2022/11/26 07:21:20;;;;;;;4.67;3.70;;;6.40;97.30;;;;;;5078640;28;20442;-80
2022/11/26 07:23:46;;;;;;;18.40;5.00;;;6.50;97.30;;;;;;5060327;28;20464;-80
2022/11/26 07:26:13;;;;;;;3.23;2.70;;;6.50;97.30;;;;;;5060194;28;20456;-80
2022/11/26 07:28:40;;;;;;;5.10;2.87;;;6.50;97.30;;;;;;5060965;28;20429;-80
2022/11/26 07:31:11;;;;;;;5.17;4.87;;;6.50;97.30;;;;;;5079130;28;20398;-80
2022/11/26 07:33:38;;;;;;;8.70;4.03;;;6.50;97.30;;;;;;5061372;28;20433;-80
2022/11/26 07:36:06;;;;;;;6.13;5.20;;;6.60;97.30;;;;;;5061650;28;20409;-80
2022/11/26 07:38:32;;;;;;;3.30;2.90;;;6.60;97.30;;;;;;5061515;28;20774;-81
2022/11/26 07:41:03;;;;;;;21.90;2.80;;;6.70;97.30;;;;;;5060047;28;20417;-80
2022/11/26 07:43:29;;;;;;;2.70;2.27;;;6.70;97.30;;;;;;5060129;28;20957;-81
2022/11/26 07:45:54;;;;;;;10.00;3.73;;;6.70;97.30;;;;;;5059615;28;20468;-81
2022/11/26 07:48:20;;;;;;;4.80;2.87;;;6.70;97.30;;;;;;5059662;28;20272;-81
2022/11/26 07:50:45;;;;;;;2.80;2.60;;;6.70;97.30;;;;;;5059648;28;20266;-81
2022/11/26 07:53:12;;;;;;;7.50;5.83;;;6.70;97.30;;;;;;5059134;28;20273;-81
2022/11/26 07:55:39;;;;;;;5.00;4.50;;;6.70;97.30;;;;;;5060192;28;20190;-81
2022/11/26 07:58:05;;;;;;;5.70;5.33;;;6.70;97.30;;;;;;5059500;28;20922;-80
2022/11/26 08:00:30;;;;;;;4.30;4.00;;;6.80;97.30;;;;;;5059104;28;20443;-81
2022/11/26 08:02:56;;;;;;;8.60;3.57;;;6.80;97.30;;;;;;5059535;28;20198;-80
2022/11/26 08:05:22;;;;;;;4.00;3.80;;;6.80;97.30;;;;;;5059343;28;20248;-80
2022/11/26 08:07:47;;;;;;;8.97;5.90;;;6.80;97.30;;;;;;5059452;28;20194;-81
2022/11/26 08:10:13;;;;;;;4.30;3.70;;;6.90;97.30;;;;;;5059614;28;20665;-80
2022/11/26 08:12:38;;;;;;;14.00;3.30;;;6.90;97.30;;;;;;5059487;28;20384;-81
2022/11/26 08:15:04;;;;;;;12.87;5.50;;;6.90;97.30;;;;;;5058975;28;20179;-81
2022/11/26 08:17:30;;;;;;;6.67;3.60;;;7.00;97.30;;;;;;5059162;28;20179;-81
2022/11/26 08:19:56;;;;;;;13.80;5.40;;;7.10;97.30;;;;;;5058767;28;20440;-81
2022/11/26 08:22:21;;;;;;;4.30;3.03;;;7.10;97.30;;;;;;5058976;28;20206;-81
2022/11/26 08:24:48;;;;;;;6.23;3.23;;;7.10;97.30;;;;;;5058538;28;20245;-81
2022/11/26 08:27:14;;;;;;;7.83;4.60;;;7.20;97.30;;;;;;5058491;28;20175;-80
2022/11/26 08:29:40;;;;;;;7.77;5.07;;;7.20;97.30;;;;;;5076227;28;20460;-80
2022/11/26 08:32:05;;;;;;;7.73;4.23;;;7.30;97.30;;;;;;5057973;28;20238;-81
2022/11/26 08:34:32;;;;;;;3.23;3.03;;;7.30;97.30;;;;;;5057784;28;20175;-80
2022/11/26 08:36:58;;;;;;;3.50;2.37;;;7.40;97.30;;;;;;5058965;28;20175;-79
2022/11/26 08:39:24;;;;;;;7.53;5.87;;;7.40;97.30;;;;;;5058449;28;20417;-80
2022/11/26 08:41:49;;;;;;;11.37;4.00;;;7.50;97.30;;;;;;5058159;28;20179;-79
2022/11/26 08:44:15;;;;;;;3.13;2.97;;;7.50;97.30;;;;;;5074844;28;20549;-82
2022/11/26 08:46:41;;;;;;;8.10;5.07;;;7.50;97.30;;;;;;5057310;28;20179;-80
2022/11/26 08:49:09;;;;;;;12.27;4.57;;;7.50;97.30;;;;;;5057170;28;20313;-79
2022/11/26 08:51:35;;;;;;;10.97;5.50;;;7.50;97.30;;;;;;5058260;28;20377;-79
2022/11/26 08:54:01;;;;;;;2.73;2.53;;;7.50;97.30;;;;;;5074392;28;20628;-80
2022/11/26 08:56:27;;;;;;;6.87;5.43;;;7.50;97.30;;;;;;5056975;28;20190;-80
2022/11/26 08:58:52;;;;;;;12.23;4.50;;;7.60;97.30;;;;;;5056598;28;20417;-80
2022/11/26 09:01:21;;;;;;;7.23;5.67;;;7.70;97.30;;;;;;5058810;28;20201;-80
2022/11/26 09:03:49;;;;;;;14.60;3.80;;;7.80;97.30;;;;;;5058453;28;20203;-80
2022/11/26 09:06:15;;;;;;;13.50;7.67;;;7.80;97.30;;;;;;5058249;28;20879;-80
2022/11/26 09:11:27;;;;;;;8.53;6.50;;;7.90;97.30;;;;;;5075966;28;20476;-79
2022/11/26 09:13:52;;;;;;;2.67;2.47;;;7.90;97.30;;;;;;5057022;28;20548;-80
2022/11/26 09:16:19;;;;;;;4.07;3.83;;;8.00;97.30;;;;;;5056550;28;20456;-80
2022/11/26 09:18:44;;;;;;;6.73;4.17;;;8.00;97.30;;;;;;5056530;28;20252;-79
2022/11/26 09:21:10;;;;;;;7.33;3.20;;;8.10;97.30;;;;;;5057804;28;20822;-80
2022/11/26 09:23:36;;;;;;;5.13;2.87;;;8.10;97.30;;;;;;5057393;28;20195;-80
2022/11/26 09:26:02;;;;;;;3.57;3.37;;;8.20;97.30;;;;;;5076249;28;20256;-79
2022/11/26 09:28:27;;;;;;;8.67;6.07;;;8.20;97.30;;;;;;5057396;28;20417;-80
2022/11/26 09:31:01;;;;;;;4.60;4.30;;;8.20;97.30;;;;;;5056942;28;20293;-80
2022/11/26 09:33:28;;;;;;;9.80;3.67;;;8.20;97.30;;;;;;5056867;28;20219;-80
2022/11/26 09:35:54;;;;;;;10.83;4.50;;;8.20;97.30;;;;;;5056310;28;20421;-80
2022/11/26 09:38:20;;;;;;;5.17;2.47;;;8.20;97.30;;;;;;5055153;28;20447;-79
2022/11/26 09:40:57;;;;;;;6.13;3.60;;;8.20;97.30;;;;;;5054258;28;20410;-80
2022/11/26 09:44:01;;;;;;;8.50;4.43;;;8.30;97.30;;;;;;5051751;28;20461;-81
2022/11/26 09:46:38;;;;;;;7.93;5.00;;;8.20;97.30;;;;;;5012013;28;20478;-81
2022/11/26 09:49:04;;;;;;;2.90;2.27;;;8.30;97.30;;;;;;5052991;28;20469;-81
2022/11/26 09:51:32;;;;;;;2.70;2.47;;;8.30;97.30;;;;;;5058527;28;20475;-81
2022/11/26 09:54:03;;;;;;;10.30;2.80;;;8.30;97.30;;;;;;5056408;28;20448;-81
2022/11/26 09:56:31;;;;;;;4.43;2.23;;;8.30;97.30;;;;;;5054857;28;20468;-81
2022/11/26 09:59:01;;;;;;;3.20;2.67;;;8.30;97.30;;;;;;5059486;28;20460;-81
2022/11/26 10:01:30;;;;;;;3.60;2.47;;;8.30;97.30;;;;;;5060783;28;20405;-81
2022/11/26 10:03:56;;;;;;;4.97;2.60;;;8.30;97.30;;;;;;5060171;28;20430;-81
2022/11/26 10:06:43;;;;;;;1.87;1.83;;;8.30;97.30;;;;;;5055133;28;20476;-81
2022/11/26 10:09:36;;;;;;;1.83;1.73;;;8.20;97.30;;;;;;5078975;28;20175;-81
2022/11/26 10:12:56;;;;;;;2.30;2.10;;;8.30;97.30;;;;;;5059557;28;20414;-83
2022/11/26 10:15:37;;;;;;;1.73;1.63;;;8.30;97.30;;;;;;4994165;28;20450;-81
2022/11/26 10:18:28;;;;;;;2.50;2.30;;;8.30;97.30;;;;;;5053152;28;20417;-81
2022/11/26 10:21:03;;;;;;;10.77;3.97;;;8.30;97.30;;;;;;5060149;28;20414;-81
2022/11/26 10:23:40;;;;;;;4.47;2.50;;;8.30;97.30;;;;;;5059634;28;20509;-81
2022/11/26 10:26:16;;;;;;;4.73;3.90;;;8.40;97.30;;;;;;5054388;28;20484;-81
2022/11/26 10:28:47;;;;;;;6.50;2.93;;;8.40;97.30;;;;;;5046781;28;20429;-81
2022/11/26 10:31:20;;;;;;;1.27;1.20;;;8.30;97.30;;;;;;5051274;28;20939;-81
2022/11/26 10:34:02;;;;;;;2.57;2.37;;;8.30;97.30;;;;;;5053615;28;20509;-81
2022/11/26 10:36:38;;;;;;;18.73;4.40;;;8.30;97.30;;;;;;5056708;28;20441;-81
2022/11/26 10:39:06;;;;;;;5.87;3.43;;;8.30;97.30;;;;;;5053749;28;20432;-81
2022/11/26 10:41:36;;;;;;;3.20;3.07;;;8.30;97.30;;;;;;5055656;28;20437;-81
2022/11/26 10:44:35;;;;;;;8.33;2.13;;;8.40;97.30;;;;;;5057462;28;20476;-81
2022/11/26 10:47:23;;;;;;;1.20;1.13;;;8.40;97.30;;;;;;5084929;28;20430;-81
2022/11/26 10:49:51;;;;;;;5.23;3.07;;;8.50;97.30;;;;;;5066045;28;20556;-81
2022/11/26 10:52:23;;;;;;;2.27;2.10;;;8.50;97.30;;;;;;5081458;28;20424;-81
2022/11/26 10:55:25;;;;;;;2.63;1.80;;;8.60;97.30;;;;;;5062567;28;20409;-80
2022/11/26 10:57:55;;;;;;;2.30;2.10;;;8.60;97.30;;;;;;5062867;28;20412;-82
2022/11/26 11:00:42;;;;;;;4.63;2.70;;;8.70;97.30;;;;;;5062830;28;20409;-81
2022/11/26 11:03:20;;;;;;;2.97;2.73;;;8.80;97.30;;;;;;5063111;28;20495;-81
2022/11/26 11:05:45;;;;;;;2.17;2.00;;;8.80;97.30;;;;;;5062770;28;21049;-81
2022/11/26 11:08:28;;;;;;;4.67;2.43;;;8.90;97.30;;;;;;5063525;28;20483;-81
2022/11/26 11:10:56;;;;;;;7.60;4.83;;;8.90;97.30;;;;;;5061342;28;20285;-81
2022/11/26 11:13:37;;;;;;;1.67;1.10;;;9.00;97.30;;;;;;5047490;28;20509;-81
2022/11/26 11:16:03;;;;;;;2.73;2.53;;;9.00;97.30;;;;;;5043496;28;20411;-81
2022/11/26 11:18:34;;;;;;;1.73;1.70;;;9.10;97.30;;;;;;5051191;28;20433;-81
2022/11/26 11:21:03;;;;;;;12.67;1.93;;;9.10;97.30;;;;;;5042819;28;20433;-81
2022/11/26 11:23:36;;;;;;;2.87;2.40;;;9.10;97.30;;;;;;5051636;28;20438;-81
2022/11/26 11:26:06;;;;;;;1.73;1.67;;;9.10;97.30;;;;;;5060720;28;20481;-81
2022/11/26 11:28:36;;;;;;;4.63;1.87;;;9.20;97.30;;;;;;5042006;28;20450;-82
2022/11/26 11:31:17;;;;;;;4.07;3.20;;;9.30;97.30;;;;;;5048107;28;20417;-81
2022/11/26 11:33:43;;;;;;;1.43;1.33;;;9.40;97.30;;;;;;5062593;28;20971;-81
2022/11/26 11:36:15;;;;;;;4.73;2.00;;;9.50;97.30;;;;;;5039806;28;20422;-81
2022/11/26 11:39:00;;;;;;;1.63;1.53;;;9.50;97.30;;;;;;5045436;28;20195;-82
2022/11/26 11:41:42;;;;;;;7.80;2.83;;;9.50;97.30;;;;;;5050497;28;20429;-82
2022/11/26 11:44:24;;;;;;;1.53;1.43;;;9.50;97.30;;;;;;5056410;28;20441;-81
2022/11/26 11:47:16;;;;;;;3.40;3.20;;;9.60;97.30;;;;;;5047441;28;20950;-81
2022/11/26 11:50:12;;;;;;;6.73;2.17;;;9.90;97.30;;;;;;5012705;28;20462;-81
2022/11/26 11:52:57;;;;;;;2.60;2.40;;;10.30;97.30;;;;;;5063888;28;20822;-82
2022/11/26 11:55:30;;;;;;;3.73;1.77;;;10.70;97.30;;;;;;5045413;28;20448;-82
2022/11/26 11:58:15;;;;;;;5.93;1.77;;;11.00;97.30;;;;;;5045091;28;20438;-81
2022/11/26 12:00:54;;;;;;;2.37;2.23;;;11.30;97.30;;;;;;5064385;28;20410;-82
2022/11/26 12:03:48;;;;;;;5.77;2.90;;;11.60;97.30;;;;;;5043931;28;20434;-82
2022/11/26 12:06:41;;;;;;;1.83;1.53;;;11.80;97.30;;;;;;5041573;28;20458;-81
2022/11/26 12:09:28;;;;;;;1.40;1.30;;;11.90;97.30;;;;;;5046331;28;20410;-81
2022/11/26 12:12:03;;;;;;;0.95;0.85;;;11.80;97.30;;;;;;5045405;28;20411;-81
2022/11/26 12:14:42;;;;;;;1.70;1.60;;;11.90;97.30;;;;;;5046021;28;20426;-82
2022/11/26 12:17:23;;;;;;;3.53;2.67;;;12.00;97.30;;;;;;5040557;28;20445;-82
2022/11/26 12:20:00;;;;;;;1.60;1.50;;;12.10;97.30;;;;;;5026111;28;20430;-82
2022/11/26 12:22:27;;;;;;;1.40;1.10;;;12.20;97.30;;;;;;5022482;28;20442;-82
2022/11/26 12:25:00;;;;;;;2.03;1.90;;;12.20;97.30;;;;;;5059811;28;20423;-82
2022/11/26 12:27:56;;;;;;;1.70;1.60;;;12.00;97.30;;;;;;5045648;28;20422;-82
2022/11/26 12:30:29;;;;;;;1.90;1.80;;;11.70;97.30;;;;;;5044048;28;20456;-82
2022/11/26 12:32:59;;;;;;;1.67;1.50;;;11.50;97.30;;;;;;5044700;28;20636;-82
2022/11/26 12:35:50;;;;;;;1.47;1.37;;;11.30;97.30;;;;;;5059809;28;20410;-82
2022/11/26 12:38:30;;;;;;;1.20;1.10;;;11.20;97.30;;;;;;5043417;28;20430;-83
2022/11/26 12:41:05;;;;;;;2.60;1.90;;;11.10;97.30;;;;;;5042689;28;20457;-82
2022/11/26 12:43:50;;;;;;;3.03;1.80;;;11.00;97.30;;;;;;5044253;28;20540;-82
2022/11/26 12:46:18;;;;;;;3.93;2.13;;;11.00;97.30;;;;;;5043678;28;20457;-82
2022/11/26 12:48:55;;;;;;;2.17;1.83;;;11.00;97.30;;;;;;5069523;28;20481;-82
2022/11/26 12:51:21;;;;;;;3.03;1.80;;;11.00;97.30;;;;;;5061701;28;20435;-82
2022/11/26 12:53:57;;;;;;;2.30;1.90;;;11.10;97.30;;;;;;5045612;28;20458;-82
2022/11/26 12:56:30;;;;;;;34.87;2.63;;;11.40;97.30;;;;;;5043359;28;20183;-81
2022/11/26 12:59:07;;;;;;;4.53;1.60;;;11.80;97.30;;;;;;5043648;28;20839;-82
2022/11/26 13:01:32;;;;;;;1.67;1.60;;;12.10;97.30;;;;;;5042661;28;20860;-82
2022/11/26 13:04:00;;;;;;;6.10;2.80;;;12.40;97.30;;;;;;5062358;28;20452;-82
2022/11/26 13:06:32;;;;;;;5.17;2.20;;;12.60;96.80;;;;;;5041610;28;20236;-82
2022/11/26 13:09:12;;;;;;;5.60;2.20;;;12.80;96.20;;;;;;5048716;28;20443;-82
2022/11/26 13:11:43;;;;;;;1.97;1.80;;;13.00;95.90;;;;;;5022901;28;20419;-82
2022/11/26 13:14:21;;;;;;;1.83;1.70;;;13.20;94.50;;;;;;5029002;28;20997;-82